createdAt,value
2023-02-05T00:04:24.915Z,102206.77
2023-02-05T00:09:31.060Z,102212.84
2023-02-05T00:14:34.736Z,102217.10
2023-02-05T00:19:38.094Z,102216.33
2023-02-05T00:24:41.530Z,102214.83
2023-02-05T00:29:44.692Z,102216.98
2023-02-05T00:34:47.956Z,102216.55
2023-02-05T00:39:51.026Z,102222.30
2023-02-05T00:44:54.209Z,102219.59
2023-02-05T00:49:57.503Z,102218.64
2023-02-05T00:55:00.736Z,102217.80
2023-02-05T01:00:04.608Z,102230.35
2023-02-05T01:05:08.518Z,102236.02
2023-02-05T01:10:12.171Z,102238.54
2023-02-05T01:15:15.442Z,102233.95
2023-02-05T01:20:20.612Z,102227.97
2023-02-05T01:25:23.975Z,102220.93
2023-02-05T01:30:27.801Z,102220.36
2023-02-05T01:35:31.337Z,102224.53
2023-02-05T01:40:34.864Z,102225.77
2023-02-05T01:46:03.878Z,102226.92
2023-02-05T01:51:12.134Z,102219.71
2023-02-05T01:56:22.454Z,102212.05
2023-02-05T02:01:27.501Z,102216.37
2023-02-05T02:06:36.012Z,102213.15
2023-02-05T02:11:42.848Z,102212.20
2023-02-05T02:16:46.965Z,102215.42
2023-02-05T02:22:08.388Z,102214.51
2023-02-05T02:27:49.359Z,102216.27
2023-02-05T02:33:43.434Z,102217.51
2023-02-05T02:38:52.914Z,102224.22
2023-02-05T02:43:58.605Z,102234.57
2023-02-05T02:49:06.490Z,102237.04
2023-02-05T02:54:15.989Z,102237.60
2023-02-05T02:59:25.511Z,102239.75
2023-02-05T03:04:44.656Z,102243.92
2023-02-05T03:09:54.750Z,102247.79
2023-02-05T03:14:59.060Z,102253.86
2023-02-05T03:20:18.953Z,102249.84
2023-02-05T03:25:23.776Z,102245.13
2023-02-05T03:30:39.637Z,102241.13
2023-02-05T03:35:51.407Z,102238.37
2023-02-05T03:41:01.849Z,102235.34
2023-02-05T03:46:53.397Z,102230.59
2023-02-05T03:52:04.372Z,102234.66
2023-02-05T03:57:16.213Z,102233.30
2023-02-05T04:02:22.206Z,102227.54
2023-02-05T04:07:25.982Z,102236.81
2023-02-05T04:12:29.291Z,102239.77
2023-02-05T04:17:33.182Z,102238.02
2023-02-05T04:22:36.430Z,102234.29
2023-02-05T04:27:39.710Z,102238.96
2023-02-05T04:32:43.264Z,102245.27
2023-02-05T04:37:46.888Z,102250.58
2023-02-05T04:42:50.749Z,102252.50
2023-02-05T04:47:54.040Z,102255.06
2023-02-05T04:52:57.100Z,102261.62
2023-02-05T04:58:00.589Z,102266.02
2023-02-05T05:03:03.854Z,102266.46
2023-02-05T05:08:06.923Z,102265.15
2023-02-05T05:13:10.148Z,102262.37
2023-02-05T05:18:13.208Z,102264.02
2023-02-05T05:23:16.607Z,102268.40
2023-02-05T05:28:19.932Z,102262.89
2023-02-05T05:33:23.080Z,102273.09
2023-02-05T05:38:26.282Z,102275.78
2023-02-05T05:43:47.914Z,102277.16
2023-02-05T05:48:53.321Z,102273.44
2023-02-05T05:53:57.005Z,102276.23
2023-02-05T05:59:00.132Z,102285.23
2023-02-05T06:04:04.336Z,102293.05
2023-02-05T06:09:07.763Z,102301.57
2023-02-05T06:14:10.912Z,102300.01
2023-02-05T06:19:14.529Z,102308.19
2023-02-05T06:24:17.839Z,102307.95
2023-02-05T06:29:20.899Z,102322.00
2023-02-05T06:34:24.284Z,102324.34
2023-02-05T06:39:27.758Z,102332.82
2023-02-05T06:44:31.078Z,102332.83
2023-02-05T06:49:34.318Z,102332.77
2023-02-05T06:54:38.984Z,102339.07
2023-02-05T06:59:42.377Z,102338.27
2023-02-05T07:04:46.536Z,102335.50
2023-02-05T07:09:49.908Z,102338.60
2023-02-05T07:14:53.143Z,102350.05
2023-02-05T07:19:56.391Z,102363.37
2023-02-05T07:25:02.132Z,102364.54
2023-02-05T07:30:07.973Z,102363.69
2023-02-05T07:35:11.452Z,102361.13
2023-02-05T07:40:14.778Z,102359.70
2023-02-05T07:45:18.113Z,102362.02
2023-02-05T07:50:21.616Z,102369.31
2023-02-05T07:55:24.847Z,102376.55
2023-02-05T08:00:28.301Z,102371.08
2023-02-05T08:05:32.200Z,102376.17
2023-02-05T08:10:35.844Z,102375.59
2023-02-05T08:15:41.821Z,102379.28
2023-02-05T08:20:45.725Z,102390.46
2023-02-05T08:25:53.087Z,102402.61
2023-02-05T08:30:56.801Z,102417.36
2023-02-05T08:36:00.043Z,102418.13
2023-02-05T08:41:14.259Z,102422.22
2023-02-05T08:46:21.252Z,102421.36
2023-02-05T08:51:24.719Z,102421.13
2023-02-05T08:56:27.970Z,102425.88
2023-02-05T09:01:31.405Z,102430.33
2023-02-05T09:06:35.407Z,102443.92
2023-02-05T09:11:38.697Z,102450.09
2023-02-05T09:16:42.230Z,102462.70
2023-02-05T09:21:45.451Z,102468.26
2023-02-05T09:26:48.602Z,102472.38
2023-02-05T09:31:52.311Z,102483.08
2023-02-05T09:36:55.600Z,102486.38
2023-02-05T09:42:13.685Z,102497.97
2023-02-05T09:47:30.088Z,102490.77
2023-02-05T09:52:45.128Z,102479.83
2023-02-05T09:57:52.121Z,102479.14
2023-02-05T10:03:23.433Z,102476.91
2023-02-05T10:08:29.687Z,102474.41
2023-02-05T10:13:39.526Z,102472.97
2023-02-05T10:18:57.948Z,102471.98
2023-02-05T10:24:40.611Z,102476.15
2023-02-05T10:30:16.284Z,102479.17
2023-02-05T10:35:44.825Z,102477.48
2023-02-05T10:40:48.264Z,102473.21
2023-02-05T10:45:52.770Z,102467.20
2023-02-05T10:51:02.666Z,102459.86
2023-02-05T10:56:07.116Z,102460.02
2023-02-05T11:01:17.748Z,102449.77
2023-02-05T11:06:40.702Z,102447.81
2023-02-05T11:11:55.392Z,102443.98
2023-02-05T11:17:00.581Z,102439.70
2023-02-05T11:22:05.487Z,102428.04
2023-02-05T11:27:32.399Z,102421.66
2023-02-05T11:32:38.144Z,102422.64
2023-02-05T11:37:41.653Z,102427.91
2023-02-05T11:42:53.084Z,102430.55
2023-02-05T11:47:57.416Z,102432.86
2023-02-05T11:53:47.681Z,102427.60
2023-02-05T11:59:06.977Z,102427.31
2023-02-05T12:04:46.722Z,102428.31
2023-02-05T12:09:53.036Z,102423.23
2023-02-05T12:14:56.191Z,102419.57
2023-02-05T12:20:19.795Z,102416.77
2023-02-05T12:25:30.252Z,102413.36
2023-02-05T12:31:11.024Z,102419.11
2023-02-05T12:37:07.540Z,102413.59
2023-02-05T12:42:33.976Z,102406.80
2023-02-05T12:48:40.910Z,102411.33
2023-02-05T12:54:11.685Z,102414.58
2023-02-05T12:59:24.299Z,102416.13
2023-02-05T13:04:34.017Z,102408.66
2023-02-05T13:09:53.380Z,102402.73
2023-02-05T13:15:31.841Z,102409.75
2023-02-05T13:21:03.566Z,102407.73
2023-02-05T13:26:16.711Z,102412.34
2023-02-05T13:31:52.775Z,102416.73
2023-02-05T13:36:56.529Z,102421.35
2023-02-05T13:42:26.560Z,102424.00
2023-02-05T13:47:58.750Z,102418.31
2023-02-05T13:53:25.706Z,102420.02
2023-02-05T13:58:42.575Z,102418.95
2023-02-05T14:04:16.503Z,102417.48
2023-02-05T14:09:24.666Z,102426.89
2023-02-05T14:14:37.422Z,102419.94
2023-02-05T14:19:47.002Z,102419.72
2023-02-05T14:24:50.861Z,102419.54
2023-02-05T14:29:54.101Z,102422.05
2023-02-05T14:35:31.994Z,102423.93
2023-02-05T14:41:25.079Z,102430.45
2023-02-05T14:47:32.460Z,102435.94
2023-02-05T14:52:42.496Z,102435.79
2023-02-05T14:58:28.825Z,102450.86
2023-02-05T15:03:39.942Z,102462.30
2023-02-05T15:09:02.854Z,102471.98
2023-02-05T15:14:21.641Z,102468.33
2023-02-05T15:20:10.972Z,102474.00
2023-02-05T15:25:47.607Z,102477.29
2023-02-05T15:31:32.569Z,102478.94
2023-02-05T15:36:42.205Z,102480.10
2023-02-05T15:41:47.381Z,102482.45
2023-02-05T15:46:51.420Z,102491.63
2023-02-05T15:51:55.689Z,102490.36
2023-02-05T15:56:59.585Z,102488.91
2023-02-05T16:02:09.201Z,102487.48
2023-02-05T16:07:30.903Z,102486.52
2023-02-05T16:12:37.245Z,102492.42
2023-02-05T16:17:48.912Z,102489.33
2023-02-05T16:23:00.350Z,102492.08
2023-02-05T16:28:13.446Z,102500.33
2023-02-05T16:33:32.386Z,102507.74
2023-02-05T16:38:39.044Z,102511.48
2023-02-05T16:43:58.007Z,102512.37
2023-02-05T16:49:42.286Z,102513.84
2023-02-05T16:54:45.745Z,102521.52
2023-02-05T17:00:08.605Z,102520.70
2023-02-05T17:06:06.668Z,102527.20
2023-02-05T17:12:01.483Z,102526.84
2023-02-05T17:17:25.323Z,102521.48
2023-02-05T17:23:11.498Z,102523.90
2023-02-05T17:28:31.121Z,102521.60
2023-02-05T17:33:36.963Z,102515.48
2023-02-05T17:39:07.103Z,102517.36
2023-02-05T17:44:22.238Z,102531.51
2023-02-05T17:49:49.846Z,102545.58
2023-02-05T17:55:20.180Z,102546.17
2023-02-05T18:00:46.861Z,102547.54
2023-02-05T18:05:53.046Z,102554.78
2023-02-05T18:10:56.515Z,102558.07
2023-02-05T18:16:03.565Z,102559.94
2023-02-05T18:21:07.769Z,102559.73
2023-02-05T18:26:11.089Z,102563.23
2023-02-05T18:31:14.861Z,102558.55
2023-02-05T18:36:18.745Z,102553.73
2023-02-05T18:41:22.381Z,102552.33
2023-02-05T18:46:26.137Z,102550.53
2023-02-05T18:51:32.546Z,102551.27
2023-02-05T18:56:36.412Z,102549.19
2023-02-05T19:01:40.675Z,102554.77
2023-02-05T19:06:47.163Z,102556.15
2023-02-05T19:11:52.276Z,102558.69
2023-02-05T19:16:55.580Z,102554.98
2023-02-05T19:22:05.419Z,102570.52
2023-02-05T19:27:09.030Z,102562.33
2023-02-05T19:32:15.862Z,102560.44
2023-02-05T19:37:19.214Z,102557.62
2023-02-05T19:42:22.954Z,102563.33
2023-02-05T19:47:28.584Z,102568.51
2023-02-05T19:52:32.268Z,102574.06
2023-02-05T19:57:54.502Z,102576.40
2023-02-05T20:02:57.753Z,102582.27
2023-02-05T20:08:26.954Z,102591.10
2023-02-05T20:13:31.973Z,102596.55
2023-02-05T20:18:35.413Z,102606.84
2023-02-05T20:23:39.519Z,102599.89
2023-02-05T20:29:01.312Z,102612.65
2023-02-05T20:34:26.507Z,102620.41
2023-02-05T20:39:31.035Z,102612.89
2023-02-05T20:44:36.479Z,102619.75
2023-02-05T20:49:41.657Z,102627.88
2023-02-05T20:54:45.024Z,102638.80
2023-02-05T20:59:49.037Z,102639.74
2023-02-05T21:04:52.907Z,102649.32
2023-02-05T21:09:56.585Z,102646.34
2023-02-05T21:14:59.795Z,102646.60
2023-02-05T21:20:04.819Z,102641.21
2023-02-05T21:25:08.588Z,102645.72
2023-02-05T21:30:12.487Z,102652.98
2023-02-05T21:35:15.784Z,102663.36
2023-02-05T21:40:19.521Z,102665.71
2023-02-05T21:45:22.931Z,102679.81
2023-02-05T21:50:26.225Z,102681.30
2023-02-05T21:55:29.467Z,102682.84
2023-02-05T22:00:32.884Z,102684.61
2023-02-05T22:05:36.354Z,102684.89
2023-02-05T22:10:39.585Z,102694.88
2023-02-05T22:15:42.728Z,102692.98
2023-02-05T22:20:45.878Z,102700.58
2023-02-05T22:25:49.044Z,102699.81
2023-02-05T22:31:02.484Z,102698.10
2023-02-05T22:36:07.685Z,102702.04
2023-02-05T22:41:23.540Z,102695.70
2023-02-05T22:46:29.899Z,102693.77
2023-02-05T22:51:36.491Z,102696.62
2023-02-05T22:56:39.825Z,102696.30
2023-02-05T23:01:43.193Z,102688.91
2023-02-05T23:06:46.383Z,102679.66
2023-02-05T23:11:49.522Z,102694.73
2023-02-05T23:16:52.728Z,102700.33
2023-02-05T23:21:56.039Z,102692.90
2023-02-05T23:26:59.180Z,102688.19
2023-02-05T23:32:02.408Z,102693.92
2023-02-05T23:37:05.669Z,102689.10
2023-02-05T23:42:10.381Z,102689.06
2023-02-05T23:47:13.625Z,102687.14
2023-02-05T23:52:16.855Z,102684.73
2023-02-05T23:57:20.076Z,102675.86
